Susan-l — WQZ4631 — position and weather

sailwx.info

Track history (hours):
 
Tides and Currents Weather Stations Pressure Air Temp Water Temp Dewpoint Dewpoint Depression Visibility Wind Speed Wind Dir Waves Ship Positions

Susan-l

Owner: FIVE FATHOMS INC, CAPE MAY, NJ. More information available from US FCC via Universal Licensing System and Coast Guard Vessel Documentation Center.

Last reported at 2018-Jan-20 14:37 UTC. Time now 2018-Jan-23 16:13 UTC.
Position N 34°36' W 076°37'.

Length 32 m; draft 3.3 m.

Type: Fishing. MMSI: 366211560.

Date/timePositionNaut miles runAvg speedWind from/ knotsBaromVisibWave heightAir tempDewpointWater temp
2018-Jan-20 14:37N 34°36' W 076°37'1 8.7
2018-Jan-20 14:30N 34°37' W 076°38'4 8.1
2018-Jan-20 14:00N 34°40' W 076°40'3 0.2
2018-Jan-19 20:31N 34°43' W 076°40'0 0.0
2018-Jan-19 20:30N 34°43' W 076°40'0 0.0
2018-Jan-19 20:00N 34°43' W 076°40'0 0.0
2018-Jan-19 19:30N 34°43' W 076°40'0 0.0
2018-Jan-19 19:00N 34°43' W 076°40'0 0.0
2018-Jan-19 18:30N 34°43' W 076°40'0 0.0
2018-Jan-19 18:00N 34°43' W 076°40'0 0.0
2018-Jan-19 17:30N 34°43' W 076°40'1 2.9
2018-Jan-19 17:00N 34°42' W 076°40'4 7.6
2018-Jan-19 16:30N 34°38' W 076°40'4 8.3
2018-Jan-19 16:00N 34°35' W 076°36'4 7.8
2018-Jan-19 15:29N 34°32' W 076°33'  
2018-Jan-11 09:38N 38°57' W 074°54'1 5.0
2018-Jan-11 09:29N 38°57' W 074°53'15 7.5
2018-Jan-11 07:26N 38°59' W 074°34'4 8.1
2018-Jan-11 06:59N 38°59' W 074°29'4 8.1
2018-Jan-11 06:30N 39°00' W 074°24'7 8.1
2018-Jan-11 05:39N 39°02' W 074°16'12 8.2
2018-Jan-11 04:10N 39°06' W 074°01'3 8.2
2018-Jan-11 03:46N 39°07' W 073°57'3 8.2
2018-Jan-11 03:28N 39°08' W 073°54'  
Track history (hours):
 
Tides and Currents Weather Stations Pressure Air Temp Water Temp Dewpoint Dewpoint Depression Visibility Wind Speed Wind Dir Waves Ship Positions

Susan-l

Owner: FIVE FATHOMS INC, CAPE MAY, NJ. More information available from US FCC via Universal Licensing System and Coast Guard Vessel Documentation Center.

Last reported at 2018-Jan-20 14:37 UTC. Time now 2018-Jan-23 16:13 UTC.
Position N 34°36' W 076°37'.

Length 32 m; draft 3.3 m.

Type: Fishing. MMSI: 366211560.

Date/timePositionNaut miles runAvg speedWind from/ knotsBaromVisibWave heightAir tempDewpointWater temp
2018-Jan-20 14:37N 34°36' W 076°37'1 8.7
2018-Jan-20 14:30N 34°37' W 076°38'4 8.1
2018-Jan-20 14:00N 34°40' W 076°40'3 0.2
2018-Jan-19 20:31N 34°43' W 076°40'0 0.0
2018-Jan-19 20:30N 34°43' W 076°40'0 0.0
2018-Jan-19 20:00N 34°43' W 076°40'0 0.0
2018-Jan-19 19:30N 34°43' W 076°40'0 0.0
2018-Jan-19 19:00N 34°43' W 076°40'0 0.0
2018-Jan-19 18:30N 34°43' W 076°40'0 0.0
2018-Jan-19 18:00N 34°43' W 076°40'0 0.0
2018-Jan-19 17:30N 34°43' W 076°40'1 2.9
2018-Jan-19 17:00N 34°42' W 076°40'4 7.6
2018-Jan-19 16:30N 34°38' W 076°40'4 8.3
2018-Jan-19 16:00N 34°35' W 076°36'4 7.8
2018-Jan-19 15:29N 34°32' W 076°33'  
2018-Jan-11 09:38N 38°57' W 074°54'1 5.0
2018-Jan-11 09:29N 38°57' W 074°53'15 7.5
2018-Jan-11 07:26N 38°59' W 074°34'4 8.1
2018-Jan-11 06:59N 38°59' W 074°29'4 8.1
2018-Jan-11 06:30N 39°00' W 074°24'7 8.1
2018-Jan-11 05:39N 39°02' W 074°16'12 8.2
2018-Jan-11 04:10N 39°06' W 074°01'3 8.2
2018-Jan-11 03:46N 39°07' W 073°57'3 8.2
2018-Jan-11 03:28N 39°08' W 073°54'  

Dump ship's entire track history